Time;durP1;ratioP1;P1;durP2;ratioP2;P2;SDS_P1;SDS_P2;PMS_P1;PMS_P2;Temp;Humidity;BMP_temperature;BMP_pressure;BME280_temperature;BME280_humidity;BME280_pressure;Samples;Min_cycle;Max_cycle;Signal;HPM_P1;HPM_P2
2022/12/03 00:01:13;;;;;;;73.30;32.30;;;;;;;2.90;67.78;99865.08;227723;1236;138328;-64
2022/12/03 00:06:17;;;;;;;69.80;31.20;;;;;;;2.91;67.56;99859.08;227687;1226;138438;-65
2022/12/03 00:11:20;;;;;;;67.90;30.20;;;;;;;2.90;67.78;99856.14;226747;1241;138863;-65
2022/12/03 00:16:23;;;;;;;70.40;31.30;;;;;;;2.85;67.77;99855.35;226635;1241;138379;-66
2022/12/03 00:21:26;;;;;;;66.50;29.80;;;;;;;2.82;67.94;99861.36;227693;1229;138144;-65
2022/12/03 00:26:30;;;;;;;60.50;29.50;;;;;;;2.78;67.95;99863.16;226661;1239;138878;-65
2022/12/03 00:31:33;;;;;;;69.00;28.50;;;;;;;2.76;68.28;99869.16;226552;1250;138345;-65
2022/12/03 00:36:36;;;;;;;63.00;27.60;;;;;;;2.72;68.06;99877.46;226660;1236;138005;-65
2022/12/03 00:41:39;;;;;;;61.80;27.70;;;;;;;2.73;68.15;99872.36;226593;1237;138734;-66
2022/12/03 00:46:42;;;;;;;62.80;26.60;;;;;;;2.70;68.58;99878.02;226600;1241;138352;-66
2022/12/03 00:51:46;;;;;;;65.90;29.10;;;;;;;2.69;68.34;99875.59;227679;1236;139106;-65
2022/12/03 00:56:49;;;;;;;69.90;28.70;;;;;;;2.73;68.35;99874.98;227009;1234;138984;-66
2022/12/03 01:01:52;;;;;;;67.40;30.20;;;;;;;2.81;68.58;99859.98;226874;1237;138515;-65
2022/12/03 01:06:55;;;;;;;68.00;30.00;;;;;;;2.92;68.63;99862.77;226910;1234;138609;-65
2022/12/03 01:11:58;;;;;;;60.60;27.70;;;;;;;2.96;68.12;99862.16;226647;1235;138112;-65
2022/12/03 01:17:01;;;;;;;65.70;28.80;;;;;;;2.94;67.98;99859.20;226698;1234;244599;-65
2022/12/03 01:22:04;;;;;;;65.50;27.30;;;;;;;2.92;68.12;99858.90;226581;1236;138687;-64
2022/12/03 01:27:08;;;;;;;69.40;29.20;;;;;;;2.89;68.08;99845.64;226522;1250;138597;-66
2022/12/03 01:32:21;;;;;;;66.70;29.20;;;;;;;2.87;68.19;99844.98;226702;1244;137971;-66
2022/12/03 01:37:25;;;;;;;66.60;28.80;;;;;;;2.87;68.24;99838.31;226699;1241;138773;-66
2022/12/03 01:42:33;;;;;;;67.30;29.80;;;;;;;2.81;68.16;99844.02;226640;1238;138098;-65
2022/12/03 01:48:01;;;;;;;74.20;28.90;;;;;;;2.77;68.61;99847.77;226484;1250;138170;-64
2022/12/03 01:53:34;;;;;;;75.00;30.90;;;;;;;2.76;68.74;99841.67;226568;1234;139070;-63
2022/12/03 01:58:56;;;;;;;83.80;34.10;;;;;;;2.72;68.88;99847.88;226445;1237;138224;-60
2022/12/03 02:03:59;;;;;;;81.70;32.50;;;;;;;2.74;68.88;99848.17;226596;1237;138623;-63
2022/12/03 02:09:07;;;;;;;89.70;34.50;;;;;;;2.79;69.02;99848.61;227555;1226;139651;-63
2022/12/03 02:14:14;;;;;;;92.50;35.40;;;;;;;2.85;68.88;99849.21;227797;1241;138608;-63
2022/12/03 02:19:26;;;;;;;88.50;34.70;;;;;;;2.85;69.08;99843.59;226846;1234;138655;-63
2022/12/03 02:24:47;;;;;;;83.60;34.40;;;;;;;2.86;68.94;99839.38;226770;1234;138340;-64
2022/12/03 02:29:51;;;;;;;87.50;34.10;;;;;;;2.87;69.09;99846.73;227646;1228;138954;-64
2022/12/03 02:34:54;;;;;;;82.00;32.90;;;;;;;2.87;69.19;99850.59;226532;1251;138343;-64
2022/12/03 02:40:02;;;;;;;95.00;34.30;;;;;;;2.82;69.04;99851.02;226607;1239;138359;-64
2022/12/03 02:45:21;;;;;;;99.50;36.40;;;;;;;2.76;69.45;99853.04;226868;1243;138027;-64
2022/12/03 02:50:31;;;;;;;99.10;34.20;;;;;;;2.72;69.63;99851.73;227018;1237;137862;-64
2022/12/03 02:55:36;;;;;;;93.20;34.50;;;;;;;2.71;69.90;99854.00;226920;1240;138604;-64
2022/12/03 03:00:39;;;;;;;101.70;38.40;;;;;;;2.72;69.84;99855.20;227836;1234;138490;-63
2022/12/03 03:05:44;;;;;;;104.50;35.60;;;;;;;2.74;69.83;99859.02;226789;1249;138975;-64
2022/12/03 03:10:47;;;;;;;106.70;37.90;;;;;;;2.80;70.03;99850.34;226636;1244;138796;-64
2022/12/03 03:15:51;;;;;;;99.90;37.20;;;;;;;2.86;70.02;99840.23;226679;1251;138769;-66
2022/12/03 03:20:54;;;;;;;94.20;36.20;;;;;;;2.89;69.91;99841.60;226780;1234;138080;-65
2022/12/03 03:26:03;;;;;;;103.60;36.60;;;;;;;2.90;69.74;99841.24;226673;1248;138372;-65
2022/12/03 03:31:10;;;;;;;108.20;37.60;;;;;;;2.93;70.05;99839.61;226687;1245;138377;-66
2022/12/03 03:36:14;;;;;;;100.90;37.80;;;;;;;2.93;69.96;99838.20;226668;1243;138747;-64
2022/12/03 03:41:19;;;;;;;103.30;37.00;;;;;;;2.93;70.02;99840.30;226608;1241;138174;-66
2022/12/03 03:46:33;;;;;;;104.30;35.60;;;;;;;2.91;70.23;99839.81;227049;1248;138154;-65
2022/12/03 03:51:40;;;;;;;100.00;35.60;;;;;;;2.88;70.10;99836.00;226828;1240;138810;-64
2022/12/03 03:56:51;;;;;;;104.00;36.00;;;;;;;2.87;70.03;99832.16;226954;1244;138342;-63
2022/12/03 04:02:19;;;;;;;97.50;36.20;;;;;;;2.85;70.33;99830.98;226981;1246;138571;-63
2022/12/03 04:08:00;;;;;;;102.30;38.80;;;;;;;2.89;70.11;99830.05;226958;1249;140464;-63
2022/12/03 04:13:50;;;;;;;109.30;39.20;;;;;;;2.98;70.50;99837.41;226212;1248;139473;-63
2022/12/03 04:19:00;;;;;;;110.70;38.80;;;;;;;3.02;70.09;99848.20;226760;1238;138829;-63
2022/12/03 04:24:09;;;;;;;118.50;39.60;;;;;;;3.03;69.91;99846.78;226910;1234;138694;-62
2022/12/03 04:29:30;;;;;;;117.90;39.10;;;;;;;3.01;70.21;99846.83;226923;1243;138571;-64
2022/12/03 04:45:38;;;;;;;309.20;154.20;;;;;;;3.09;70.55;99835.44;226578;1239;138416;-64
2022/12/03 04:50:59;;;;;;;96.60;41.90;;;;;;;3.08;70.39;99833.89;228019;1234;138140;-63
2022/12/03 04:56:42;;;;;;;99.20;35.90;;;;;;;3.08;69.89;99836.35;226894;1240;137735;-65
2022/12/03 05:02:21;;;;;;;102.10;36.50;;;;;;;2.96;70.05;99842.69;225837;1241;138860;-64
2022/12/03 05:07:37;;;;;;;100.50;36.10;;;;;;;2.97;70.16;99838.13;225659;1250;139097;-63
2022/12/03 05:13:08;;;;;;;88.90;35.50;;;;;;;3.07;70.01;99837.24;225837;1240;139231;-65
2022/12/03 05:18:28;;;;;;;94.00;35.90;;;;;;;3.13;69.75;99848.36;226937;1228;138252;-65
2022/12/03 05:24:23;;;;;;;88.20;35.90;;;;;;;3.12;69.63;99856.27;226670;1238;138004;-64
2022/12/03 05:29:21;;;;;;;85.50;34.70;;;;;;;3.07;69.36;99856.16;226610;1238;138199;-64
2022/12/03 05:34:30;;;;;;;86.50;36.70;;;;;;;3.19;70.12;99844.89;227779;1231;138158;-63
2022/12/03 05:39:34;;;;;;;76.80;31.10;;;;;;;3.19;69.16;99833.86;226539;1235;139828;-64
2022/12/03 05:44:41;;;;;;;77.20;32.70;;;;;;;3.07;68.93;99829.69;226572;1238;138550;-64
2022/12/03 05:50:35;;;;;;;75.00;30.60;;;;;;;3.00;69.15;99834.55;226946;1234;138578;-64
2022/12/03 05:56:42;;;;;;;75.00;31.70;;;;;;;2.95;69.03;99844.66;226752;1233;138591;-64
2022/12/03 06:01:58;;;;;;;84.90;33.30;;;;;;;2.85;69.03;99844.30;226592;1244;139155;-64
2022/12/03 06:07:07;;;;;;;80.90;32.00;;;;;;;2.86;69.16;99837.27;226980;1255;137897;-64
2022/12/03 06:12:16;;;;;;;77.90;33.30;;;;;;;2.89;69.42;99836.70;227679;1239;138637;-64
2022/12/03 06:17:23;;;;;;;84.10;34.90;;;;;;;2.91;69.22;99846.64;226982;1241;139057;-65
2022/12/03 06:22:30;;;;;;;80.60;33.30;;;;;;;3.05;69.46;99834.31;226895;1234;137829;-63
2022/12/03 06:28:06;;;;;;;78.40;31.10;;;;;;;3.09;69.12;99840.70;226646;1238;137987;-64
2022/12/03 06:33:18;;;;;;;79.70;33.20;;;;;;;3.11;69.02;99848.90;226794;1241;138480;-64
2022/12/03 06:38:34;;;;;;;79.00;32.20;;;;;;;3.03;69.07;99853.27;227682;1241;138571;-64
2022/12/03 06:43:47;;;;;;;71.90;31.90;;;;;;;2.99;69.07;99848.09;226529;1240;138268;-64
2022/12/03 06:49:02;;;;;;;77.10;31.00;;;;;;;2.94;69.10;99850.09;226616;1244;138957;-64
2022/12/03 06:54:12;;;;;;;76.60;32.10;;;;;;;2.92;69.24;99856.11;226994;1233;138723;-64
2022/12/03 06:59:20;;;;;;;81.10;32.00;;;;;;;2.87;69.19;99858.99;226760;1244;138049;-62
2022/12/03 07:04:38;;;;;;;78.20;30.80;;;;;;;2.89;69.36;99861.41;226828;1241;138052;-63
2022/12/03 07:10:14;;;;;;;91.10;34.10;;;;;;;2.85;69.29;99853.77;226837;1241;138361;-63
2022/12/03 07:15:36;;;;;;;82.40;33.80;;;;;;;2.86;69.39;99857.43;226775;1234;139823;-64
2022/12/03 07:20:45;;;;;;;89.20;37.80;;;;;;;3.00;69.52;99859.63;226724;1255;139236;-65
2022/12/03 07:26:02;;;;;;;102.90;42.20;;;;;;;3.17;69.00;99862.83;227671;1231;140070;-62
2022/12/03 07:31:30;;;;;;;92.60;37.90;;;;;;;3.20;68.67;99867.86;227875;1234;139866;-63
2022/12/03 07:36:41;;;;;;;78.40;34.40;;;;;;;3.10;68.92;99871.55;226752;1254;138368;-64
2022/12/03 07:41:52;;;;;;;91.90;34.30;;;;;;;3.01;68.87;99875.21;226870;1249;139236;-64
2022/12/03 07:47:03;;;;;;;88.40;35.60;;;;;;;2.95;69.03;99877.59;227787;1234;138594;-64
2022/12/03 07:52:15;;;;;;;83.40;34.30;;;;;;;2.92;69.04;99875.38;227814;1233;139052;-65
2022/12/03 07:57:20;;;;;;;87.80;35.00;;;;;;;2.90;69.13;99868.58;227642;1236;138426;-64
2022/12/03 08:02:38;;;;;;;;;;;;;;;;;;;;;
2022/12/03 08:11:47;;;;;;;;;;;;;;;;;;;;;
2022/12/03 08:17:41;;;;;;;103.90;37.80;;;;;;;2.92;69.71;99866.08;222858;1240;138437;-64
2022/12/03 08:23:20;;;;;;;96.90;36.70;;;;;;;3.01;69.60;99862.41;223596;1235;138586;-65
2022/12/03 08:28:34;;;;;;;97.30;38.10;;;;;;;3.09;69.40;99857.53;225059;1233;137575;-65
2022/12/03 08:34:17;;;;;;;91.40;36.80;;;;;;;3.15;69.20;99856.02;225213;1255;138896;-64
2022/12/03 08:39:32;;;;;;;101.20;40.80;;;;;;;3.16;68.96;99863.55;225147;1236;137480;-63
2022/12/03 08:45:20;;;;;;;94.60;36.60;;;;;;;3.11;68.82;99867.85;225349;1248;138387;-64
2022/12/03 08:50:45;;;;;;;94.20;37.60;;;;;;;3.03;69.03;99873.95;225052;1242;137652;-64
2022/12/03 08:55:55;;;;;;;116.50;48.50;;;;;;;3.02;69.49;99872.21;225128;1248;138037;-63
2022/12/03 09:01:12;;;;;;;101.20;39.50;;;;;;;3.13;69.20;99875.02;225217;1242;139302;-65
2022/12/03 09:07:04;;;;;;;92.60;39.50;;;;;;;3.10;69.39;99876.98;225174;1240;138384;-65
2022/12/03 09:12:42;;;;;;;83.50;34.10;;;;;;;3.06;69.54;99869.85;224968;1251;138056;-65
2022/12/03 09:18:00;;;;;;;;;;;;;;;3.02;69.49;99875.91;225200;1248;137858;-66
2022/12/03 09:23:13;;;;;;;92.00;36.50;;;;;;;3.04;69.61;99881.29;225209;1240;125585;-66
2022/12/03 09:28:18;;;;;;;90.30;39.30;;;;;;;3.09;69.52;99881.02;225227;1248;138909;-67
2022/12/03 09:33:40;;;;;;;89.50;36.80;;;;;;;3.22;69.35;99878.69;225636;1240;137904;-66
2022/12/03 09:38:49;;;;;;;82.80;33.10;;;;;;;3.33;68.87;99866.55;225806;1237;138099;-66
2022/12/03 09:44:16;;;;;;;81.50;35.00;;;;;;;3.30;68.91;99866.95;225770;1253;139034;-66
2022/12/03 09:49:23;;;;;;;90.30;37.80;;;;;;;3.28;68.79;99868.77;226575;1238;137935;-65
2022/12/03 09:54:31;;;;;;;84.20;34.70;;;;;;;3.28;68.54;99869.10;225765;1237;137741;-66
2022/12/03 09:59:36;;;;;;;83.30;35.20;;;;;;;3.25;68.53;99871.98;225866;1245;138046;-68
2022/12/03 10:04:42;;;;;;;90.20;37.80;;;;;;;3.19;68.50;99870.70;225987;1241;137615;-65
2022/12/03 10:09:45;;;;;;;82.00;34.40;;;;;;;3.15;69.01;99867.26;227228;1241;138418;-66
2022/12/03 10:14:49;;;;;;;82.80;33.70;;;;;;;3.13;69.01;99865.54;225836;1245;138526;-67
2022/12/03 10:19:52;;;;;;;81.10;33.90;;;;;;;3.15;69.00;99862.35;225869;1246;137874;-67
2022/12/03 10:25:09;;;;;;;81.90;34.50;;;;;;;3.14;69.03;99851.15;226295;1250;138978;-67
2022/12/03 10:30:22;;;;;;;98.90;36.50;;;;;;;3.18;69.21;99842.81;226247;1245;139329;-67
2022/12/03 10:35:46;;;;;;;95.60;37.30;;;;;;;3.24;69.35;99846.92;226247;1236;138244;-69
2022/12/03 10:40:54;;;;;;;83.60;35.20;;;;;;;3.30;69.23;99846.63;226501;1237;138746;-66
2022/12/03 10:46:00;;;;;;;90.30;36.20;;;;;;;3.29;69.08;99843.48;226211;1243;138324;-65
2022/12/03 10:51:19;;;;;;;88.80;34.80;;;;;;;3.32;68.98;99846.41;227797;1233;138130;-67
2022/12/03 10:56:26;;;;;;;77.30;34.20;;;;;;;3.34;68.73;99850.59;226745;1244;138393;-66
2022/12/03 11:01:30;;;;;;;94.80;37.20;;;;;;;3.34;68.90;99849.17;226725;1249;138876;-66
2022/12/03 11:06:34;;;;;;;92.80;36.10;;;;;;;3.31;69.01;99853.63;226673;1234;137544;-64
2022/12/03 11:11:37;;;;;;;89.70;35.10;;;;;;;3.34;69.02;99846.71;227756;1237;140635;-64
2022/12/03 11:16:40;;;;;;;89.80;34.70;;;;;;;3.35;68.79;99841.80;227763;1227;137962;-64
2022/12/03 11:22:04;;;;;;;104.90;38.00;;;;;;;3.29;69.43;99831.57;226735;1226;137800;-66
2022/12/03 11:27:07;;;;;;;101.40;38.80;;;;;;;3.28;69.44;99836.31;226604;1235;139837;-63
2022/12/03 11:32:36;;;;;;;91.00;36.00;;;;;;;3.33;69.53;99836.73;227569;1236;139059;-63
2022/12/03 11:37:40;;;;;;;146.90;68.20;;;;;;;3.47;70.13;99834.02;226500;1237;138454;-63
2022/12/03 11:42:45;;;;;;;93.60;34.80;;;;;;;3.58;69.48;99824.83;226447;1233;138438;-64
2022/12/03 11:47:57;;;;;;;86.50;34.80;;;;;;;3.52;69.02;99824.61;226520;1241;138529;-63
2022/12/03 11:53:12;;;;;;;144.40;36.30;;;;;;;3.44;69.23;99821.27;227542;1227;138470;-63
2022/12/03 11:58:37;;;;;;;82.10;33.30;;;;;;;3.40;69.22;99816.62;227283;1228;138131;-63
2022/12/03 12:03:41;;;;;;;87.10;33.20;;;;;;;3.34;69.29;99810.75;227282;1227;139505;-64
2022/12/03 12:08:51;;;;;;;101.10;44.50;;;;;;;3.35;70.15;99812.86;227561;1237;138070;-64
2022/12/03 12:14:00;;;;;;;90.30;37.90;;;;;;;3.35;69.40;99817.05;227456;1234;138137;-64
2022/12/03 12:19:39;;;;;;;94.60;35.70;;;;;;;3.29;69.69;99814.55;226678;1247;138451;-64
2022/12/03 12:24:51;;;;;;;88.60;38.20;;;;;;;3.28;69.90;99812.64;226428;1241;137961;-64
2022/12/03 12:29:57;;;;;;;84.60;34.70;;;;;;;3.29;69.83;99808.41;226626;1242;138591;-63
2022/12/03 12:35:26;;;;;;;;;;;;;;;3.38;69.88;99811.58;226462;1237;137962;-64
2022/12/03 12:40:32;;;;;;;85.10;35.60;;;;;;;3.43;69.82;99808.83;226670;1234;123891;-66
2022/12/03 12:45:39;;;;;;;94.80;36.10;;;;;;;3.47;69.74;99809.80;226553;1245;138188;-64
2022/12/03 12:50:46;;;;;;;90.60;37.30;;;;;;;3.47;69.68;99813.98;226600;1240;138043;-63
2022/12/03 12:55:58;;;;;;;89.60;36.20;;;;;;;3.47;69.63;99807.35;226495;1234;140139;-63
2022/12/03 13:01:23;;;;;;;120.90;48.40;;;;;;;3.49;70.53;99793.27;226746;1240;138054;-62
2022/12/03 13:06:30;;;;;;;88.40;37.30;;;;;;;3.55;69.75;99797.16;226648;1239;138311;-63
2022/12/03 13:11:51;;;;;;;;;;;;;;;;;;;;;
2022/12/03 13:16:59;;;;;;;86.90;34.80;;;;;;;3.44;69.83;99802.14;226381;1237;138298;-63
2022/12/03 13:22:19;;;;;;;;;;;;;;;3.42;69.83;99816.39;226293;1250;139073;-64
2022/12/03 13:27:31;;;;;;;82.40;33.70;;;;;;;3.38;69.81;99813.67;226394;1241;124165;-63
2022/12/03 13:32:40;;;;;;;84.60;35.50;;;;;;;3.32;69.73;99809.75;226721;1245;137823;-63
2022/12/03 13:37:59;;;;;;;85.30;34.70;;;;;;;3.35;70.21;99816.89;226651;1234;139505;-63
2022/12/03 13:43:10;;;;;;;81.30;35.10;;;;;;;3.43;69.57;99819.36;227795;1228;138620;-63
2022/12/03 13:48:44;;;;;;;81.50;34.60;;;;;;;3.49;69.30;99814.66;226818;1233;138507;-63
2022/12/03 13:53:59;;;;;;;85.90;36.10;;;;;;;3.43;69.28;99817.25;226728;1250;139123;-63
2022/12/03 13:59:07;;;;;;;89.30;38.50;;;;;;;3.40;69.67;99815.20;226804;1234;138658;-63
2022/12/03 14:04:18;;;;;;;86.30;36.70;;;;;;;3.38;69.67;99818.23;226796;1248;139100;-63
2022/12/03 14:09:37;;;;;;;85.70;36.20;;;;;;;3.36;69.72;99835.29;226617;1242;138338;-63
2022/12/03 14:15:05;;;;;;;90.70;40.00;;;;;;;3.40;70.31;99835.91;226548;1240;138120;-63
2022/12/03 14:20:10;;;;;;;87.40;37.60;;;;;;;3.40;69.90;99837.30;226810;1238;138900;-62
2022/12/03 14:25:20;;;;;;;78.30;36.60;;;;;;;3.36;70.35;99832.13;226500;1248;138133;-63
2022/12/03 14:30:32;;;;;;;84.10;36.60;;;;;;;3.29;69.87;99824.89;226740;1241;137791;-62
2022/12/03 14:36:49;;;;;;;;;;;;;;;;;;;;;
2022/12/03 14:42:13;;;;;;;81.10;36.50;;;;;;;3.35;69.85;99825.83;226274;1251;138919;-63
2022/12/03 14:47:50;;;;;;;76.10;34.00;;;;;;;3.36;69.86;99822.30;227400;1237;139791;-62
2022/12/03 14:52:58;;;;;;;83.80;36.90;;;;;;;3.34;69.99;99820.77;225855;1243;139274;-63
2022/12/03 14:58:33;;;;;;;80.00;36.50;;;;;;;3.31;70.04;99824.84;225896;1253;138925;-64
2022/12/03 15:04:18;;;;;;;82.60;37.60;;;;;;;3.30;70.10;99828.39;226181;1244;138488;-65
2022/12/03 15:09:34;;;;;;;80.60;35.80;;;;;;;3.31;70.35;99827.29;226167;1248;138031;-63
2022/12/03 15:14:46;;;;;;;81.10;35.90;;;;;;;3.30;70.46;99837.14;226969;1244;138301;-64
2022/12/03 15:20:22;;;;;;;;;;;;;;;;;;;;;
2022/12/03 15:25:30;;;;;;;276.60;138.20;;;;;;;3.31;71.66;99845.35;226219;1235;138082;-63
2022/12/03 15:30:41;;;;;;;83.00;35.90;;;;;;;3.54;71.69;99846.84;226858;1234;139166;-63
2022/12/03 15:35:47;;;;;;;88.60;38.40;;;;;;;3.66;70.64;99843.63;226412;1244;138679;-62
2022/12/03 15:40:51;;;;;;;89.60;37.30;;;;;;;3.68;70.73;99842.52;227516;1236;138755;-64
2022/12/03 15:45:58;;;;;;;89.80;38.80;;;;;;;3.68;70.36;99852.19;226469;1248;138716;-63
2022/12/03 15:51:07;;;;;;;89.50;38.50;;;;;;;3.65;70.84;99853.46;226233;1240;138911;-63
2022/12/03 15:56:22;;;;;;;81.90;35.20;;;;;;;3.62;70.62;99854.40;226180;1238;139569;-62
2022/12/03 16:01:32;;;;;;;84.20;38.10;;;;;;;3.57;70.70;99854.86;226492;1233;138420;-63
2022/12/03 16:06:38;;;;;;;94.80;38.60;;;;;;;3.60;70.95;99851.46;227473;1239;137999;-63
2022/12/03 16:12:04;;;;;;;88.50;38.00;;;;;;;3.61;71.02;99848.98;226381;1238;138110;-63
2022/12/03 16:17:41;;;;;;;100.00;40.70;;;;;;;3.58;71.16;99852.02;227631;1242;137993;-63
2022/12/03 16:22:50;;;;;;;105.80;41.10;;;;;;;3.55;71.11;99856.10;226430;1235;137840;-63
2022/12/03 16:27:58;;;;;;;103.30;42.00;;;;;;;3.56;71.34;99851.88;227611;1249;138865;-63
2022/12/03 16:34:23;;;;;;;331.00;171.00;;;;;;;3.67;71.39;99848.15;226377;1238;138664;-63
2022/12/03 16:39:58;;;;;;;113.50;43.90;;;;;;;3.85;71.28;99844.77;226331;1233;138661;-64
2022/12/03 16:50:12;;;;;;;105.90;43.20;;;;;;;3.80;71.13;99854.71;226580;1245;138205;-64
2022/12/03 16:55:46;;;;;;;108.70;42.10;;;;;;;3.77;71.15;99855.66;226324;1241;138694;-63
2022/12/03 17:01:18;;;;;;;85.70;37.10;;;;;;;3.73;71.40;99854.87;226506;1238;138374;-63
2022/12/03 17:07:01;;;;;;;98.00;38.30;;;;;;;3.70;71.40;99855.65;226251;1253;137921;-62
2022/12/03 17:12:31;;;;;;;;;;;;;;;;;;;;;
2022/12/03 17:18:20;;;;;;;85.80;36.60;;;;;;;3.64;71.38;99852.63;226178;1242;138132;-63
2022/12/03 17:23:58;;;;;;;89.80;38.20;;;;;;;3.67;71.58;99844.12;227134;1230;138842;-63
2022/12/03 17:29:08;;;;;;;84.60;38.60;;;;;;;3.75;71.62;99843.25;227061;1232;139896;-63
2022/12/03 17:34:50;;;;;;;80.10;36.70;;;;;;;3.80;71.34;99830.86;227390;1239;138088;-63
2022/12/03 17:40:33;;;;;;;74.70;34.90;;;;;;;3.82;71.28;99826.42;226504;1239;138997;-63
2022/12/03 17:45:40;;;;;;;80.20;38.00;;;;;;;3.80;70.92;99831.91;226234;1246;138917;-64
2022/12/03 17:50:57;;;;;;;287.20;147.40;;;;;;;3.77;71.51;99820.91;227305;1234;138417;-63
2022/12/03 17:56:14;;;;;;;82.50;36.40;;;;;;;3.86;71.66;99818.27;227474;1234;139036;-63
2022/12/03 18:01:30;;;;;;;;;;;;;;;;;;;;;
2022/12/03 18:06:48;;;;;;;75.20;34.40;;;;;;;3.79;71.09;99825.08;226208;1238;138742;-62
2022/12/03 18:12:08;;;;;;;71.80;34.30;;;;;;;3.69;71.05;99828.27;227211;1243;138866;-63
2022/12/03 18:17:51;;;;;;;76.50;34.90;;;;;;;3.64;71.51;99823.30;226263;1238;138201;-63
2022/12/03 18:23:23;;;;;;;74.60;33.60;;;;;;;3.66;71.58;99819.21;226332;1234;139811;-64
2022/12/03 18:28:46;;;;;;;78.00;36.50;;;;;;;3.71;71.55;99808.77;226252;1256;139290;-63
2022/12/03 18:34:06;;;;;;;77.00;35.70;;;;;;;3.79;71.49;99794.20;226094;1241;139015;-63
2022/12/03 18:39:52;;;;;;;80.10;37.50;;;;;;;3.83;71.51;99803.59;227477;1237;138260;-63
2022/12/03 18:45:01;;;;;;;80.70;37.20;;;;;;;3.84;71.51;99804.09;227437;1243;138074;-63
2022/12/03 18:50:44;;;;;;;;;;;;;;;;;;;;;
2022/12/03 18:56:18;;;;;;;80.40;36.30;;;;;;;3.80;71.58;99803.14;227482;1234;138837;-63
2022/12/03 19:02:21;;;;;;;78.60;35.40;;;;;;;3.80;71.66;99798.21;226477;1245;138050;-64
2022/12/03 19:08:13;;;;;;;84.00;36.40;;;;;;;3.74;71.55;99795.34;226445;1233;139184;-63
2022/12/03 19:14:09;;;;;;;82.40;37.90;;;;;;;3.73;71.94;99790.30;226544;1244;138475;-63
2022/12/03 19:20:25;;;;;;;80.00;37.50;;;;;;;3.77;71.64;99786.36;226254;1232;138717;-64
2022/12/03 19:26:09;;;;;;;91.90;40.10;;;;;;;3.87;71.92;99785.24;225800;1238;139726;-63
2022/12/03 19:31:33;;;;;;;82.40;38.60;;;;;;;3.93;71.70;99782.98;226370;1234;138465;-63
2022/12/03 19:36:46;;;;;;;122.60;59.80;;;;;;;3.94;71.76;99787.02;226060;1237;138664;-65
2022/12/03 19:42:00;;;;;;;84.00;40.30;;;;;;;4.07;71.46;99791.80;225827;1246;138420;-63
2022/12/03 19:47:23;;;;;;;86.60;38.00;;;;;;;4.04;71.57;99793.29;225954;1237;138592;-63
2022/12/03 19:52:46;;;;;;;87.60;39.60;;;;;;;3.95;71.21;99792.43;225927;1251;138454;-66
2022/12/03 19:58:47;;;;;;;;;;;;;;;;;;;;;
2022/12/03 20:04:13;;;;;;;78.40;39.20;;;;;;;3.90;71.64;99796.07;226226;1254;138449;-66
2022/12/03 20:09:16;;;;;;;75.10;39.80;;;;;;;3.91;71.79;99787.63;226776;1244;138783;-65
2022/12/03 20:14:20;;;;;;;91.80;41.60;;;;;;;3.94;71.72;99786.84;225808;1248;139190;-64
2022/12/03 20:19:23;;;;;;;70.30;38.10;;;;;;;3.95;71.35;99782.41;227091;1231;138274;-65
2022/12/03 20:24:26;;;;;;;84.40;41.50;;;;;;;3.91;71.71;99783.38;226099;1254;138680;-65
2022/12/03 20:29:29;;;;;;;81.40;40.50;;;;;;;3.85;71.82;99774.21;226020;1246;138098;-65
2022/12/03 20:34:35;;;;;;;79.20;39.30;;;;;;;3.83;71.87;99774.64;225978;1253;138946;-66
2022/12/03 20:39:39;;;;;;;76.40;38.30;;;;;;;3.78;71.93;99782.44;225903;1243;138124;-65
2022/12/03 20:44:42;;;;;;;78.50;40.80;;;;;;;3.73;71.89;99789.61;226029;1245;138002;-65
2022/12/03 20:49:51;;;;;;;88.80;43.70;;;;;;;3.65;71.90;99787.65;226105;1239;138218;-64
2022/12/03 20:55:19;;;;;;;88.40;43.10;;;;;;;3.68;72.77;99789.02;226172;1254;138291;-65
2022/12/03 21:00:48;;;;;;;410.30;257.80;;;;;;;3.81;72.12;99781.67;225966;1243;138945;-63
2022/12/03 21:06:00;;;;;;;93.00;51.20;;;;;;;3.86;71.80;99787.36;226014;1252;138241;-64
2022/12/03 21:11:41;;;;;;;76.80;42.30;;;;;;;3.91;71.53;99785.34;225969;1254;138374;-64
2022/12/03 21:17:00;;;;;;;77.40;41.90;;;;;;;3.82;71.40;99786.95;227023;1234;138048;-64
2022/12/03 21:22:50;;;;;;;81.80;42.00;;;;;;;3.76;71.50;99778.81;226851;1236;139599;-64
2022/12/03 21:34:13;;;;;;;84.60;39.80;;;;;;;3.74;71.64;99788.34;225727;1251;138076;-64
2022/12/03 21:39:18;;;;;;;81.10;43.60;;;;;;;3.67;71.44;99777.10;226022;1240;138117;-64
2022/12/03 21:44:58;;;;;;;149.40;84.30;;;;;;;3.78;72.95;99774.04;225843;1243;139189;-64
2022/12/03 21:51:18;;;;;;;75.70;41.20;;;;;;;3.87;71.52;99775.07;226373;1234;138214;-64
2022/12/03 21:56:25;;;;;;;82.90;40.60;;;;;;;3.86;71.40;99775.43;225622;1248;138513;-63
2022/12/03 22:01:33;;;;;;;295.00;164.10;;;;;;;3.86;71.37;99778.08;226590;1238;138666;-64
2022/12/03 22:06:46;;;;;;;84.10;41.50;;;;;;;3.89;71.55;99773.97;226642;1228;138519;-65
2022/12/03 22:12:09;;;;;;;65.90;35.60;;;;;;;3.82;71.53;99767.11;225752;1238;138644;-64
2022/12/03 22:18:31;;;;;;;;;;;;;;;;;;;;;
2022/12/03 22:24:22;;;;;;;63.80;35.30;;;;;;;3.82;72.09;99760.08;222561;1240;138597;-62
2022/12/03 22:41:16;;;;;;;61.40;34.60;;;;;;;3.61;72.22;99776.70;221684;1250;635924;-63
2022/12/03 22:46:41;;;;;;;63.70;33.00;;;;;;;3.64;72.42;99776.11;223892;1240;138617;-64
2022/12/03 22:52:21;;;;;;;69.70;35.20;;;;;;;3.69;72.35;99771.07;223993;1238;137581;-62
2022/12/03 22:57:45;;;;;;;60.50;31.80;;;;;;;3.74;72.40;99772.73;223090;1254;635393;-63
2022/12/03 23:03:57;;;;;;;53.60;29.70;;;;;;;3.72;72.28;99776.79;226946;1240;137541;-63
2022/12/03 23:10:12;;;;;;;52.60;27.10;;;;;;;3.68;72.58;99779.55;225131;1244;138416;-64
2022/12/03 23:15:46;;;;;;;50.80;26.80;;;;;;;3.66;72.40;99775.70;226359;1250;138505;-64
2022/12/03 23:21:31;;;;;;;47.60;25.40;;;;;;;3.68;72.79;99772.15;226748;1244;138160;-65
2022/12/03 23:26:49;;;;;;;48.50;27.90;;;;;;;3.69;72.65;99765.46;226786;1238;138478;-64
2022/12/03 23:39:06;;;;;;;49.40;26.30;;;;;;;3.86;72.22;99752.96;226976;1225;137797;-65
2022/12/03 23:44:11;;;;;;;50.00;27.10;;;;;;;3.89;72.44;99742.01;226392;1245;137345;-67
2022/12/03 23:49:14;;;;;;;47.60;25.70;;;;;;;3.94;72.41;99756.64;226476;1248;137875;-67
2022/12/03 23:54:17;;;;;;;50.40;26.50;;;;;;;3.93;72.18;99761.77;226382;1245;138094;-66
2022/12/03 23:59:21;;;;;;;57.20;26.70;;;;;;;3.91;72.32;99767.45;227313;1237;137710;-66
